sensor_id;sensor_type;location;lat;lon;timestamp;P1;durP1;ratioP1;P2;durP2;ratioP2
52590;SDS011;38483;42.620;25.394;2023-07-30T00:01:12;4.47;;;3.03;;
52590;SDS011;38483;42.620;25.394;2023-07-30T00:03:39;3.77;;;2.60;;
52590;SDS011;38483;42.620;25.394;2023-07-30T00:06:07;3.77;;;2.80;;
52590;SDS011;38483;42.620;25.394;2023-07-30T00:08:34;3.33;;;2.67;;
52590;SDS011;38483;42.620;25.394;2023-07-30T00:11:01;4.43;;;2.90;;
52590;SDS011;38483;42.620;25.394;2023-07-30T00:13:28;3.47;;;2.83;;
52590;SDS011;38483;42.620;25.394;2023-07-30T00:15:55;3.93;;;2.83;;
52590;SDS011;38483;42.620;25.394;2023-07-30T00:18:22;3.33;;;2.80;;
52590;SDS011;38483;42.620;25.394;2023-07-30T00:20:50;3.17;;;2.63;;
52590;SDS011;38483;42.620;25.394;2023-07-30T00:23:17;3.43;;;3.13;;
52590;SDS011;38483;42.620;25.394;2023-07-30T00:25:44;4.57;;;2.87;;
52590;SDS011;38483;42.620;25.394;2023-07-30T00:28:12;4.93;;;3.03;;
52590;SDS011;38483;42.620;25.394;2023-07-30T00:30:39;4.03;;;2.70;;
52590;SDS011;38483;42.620;25.394;2023-07-30T00:33:06;3.30;;;2.90;;
52590;SDS011;38483;42.620;25.394;2023-07-30T00:35:34;5.13;;;2.97;;
52590;SDS011;38483;42.620;25.394;2023-07-30T00:38:01;4.07;;;3.47;;
52590;SDS011;38483;42.620;25.394;2023-07-30T00:40:28;4.50;;;3.37;;
52590;SDS011;38483;42.620;25.394;2023-07-30T00:42:55;6.23;;;3.67;;
52590;SDS011;38483;42.620;25.394;2023-07-30T00:45:22;3.63;;;3.33;;
52590;SDS011;38483;42.620;25.394;2023-07-30T00:47:49;5.13;;;4.07;;
52590;SDS011;38483;42.620;25.394;2023-07-30T00:50:17;5.93;;;3.70;;
52590;SDS011;38483;42.620;25.394;2023-07-30T00:52:44;6.73;;;3.83;;
52590;SDS011;38483;42.620;25.394;2023-07-30T00:55:12;4.57;;;3.23;;
52590;SDS011;38483;42.620;25.394;2023-07-30T00:57:39;4.80;;;3.77;;
52590;SDS011;38483;42.620;25.394;2023-07-30T01:00:08;8.10;;;3.93;;
52590;SDS011;38483;42.620;25.394;2023-07-30T01:02:36;6.30;;;3.80;;
52590;SDS011;38483;42.620;25.394;2023-07-30T01:05:04;5.30;;;3.90;;
52590;SDS011;38483;42.620;25.394;2023-07-30T01:07:32;4.13;;;3.50;;
52590;SDS011;38483;42.620;25.394;2023-07-30T01:09:59;4.97;;;3.50;;
52590;SDS011;38483;42.620;25.394;2023-07-30T01:12:30;3.73;;;3.33;;
52590;SDS011;38483;42.620;25.394;2023-07-30T01:14:59;6.03;;;3.80;;
52590;SDS011;38483;42.620;25.394;2023-07-30T01:17:30;4.03;;;3.47;;
52590;SDS011;38483;42.620;25.394;2023-07-30T01:19:57;3.33;;;3.03;;
52590;SDS011;38483;42.620;25.394;2023-07-30T01:22:24;4.03;;;3.50;;
52590;SDS011;38483;42.620;25.394;2023-07-30T01:24:51;8.27;;;4.10;;
52590;SDS011;38483;42.620;25.394;2023-07-30T01:27:22;6.20;;;3.83;;
52590;SDS011;38483;42.620;25.394;2023-07-30T01:29:52;6.00;;;3.83;;
52590;SDS011;38483;42.620;25.394;2023-07-30T01:32:26;6.73;;;3.77;;
52590;SDS011;38483;42.620;25.394;2023-07-30T01:34:56;5.03;;;4.10;;
52590;SDS011;38483;42.620;25.394;2023-07-30T01:37:24;5.10;;;3.53;;
52590;SDS011;38483;42.620;25.394;2023-07-30T01:39:52;4.57;;;3.67;;
52590;SDS011;38483;42.620;25.394;2023-07-30T01:42:20;4.30;;;3.87;;
52590;SDS011;38483;42.620;25.394;2023-07-30T01:44:47;5.57;;;4.13;;
52590;SDS011;38483;42.620;25.394;2023-07-30T01:47:14;5.37;;;4.00;;
52590;SDS011;38483;42.620;25.394;2023-07-30T01:49:41;4.23;;;3.70;;
52590;SDS011;38483;42.620;25.394;2023-07-30T01:52:09;4.93;;;3.73;;
52590;SDS011;38483;42.620;25.394;2023-07-30T01:54:36;3.77;;;3.33;;
52590;SDS011;38483;42.620;25.394;2023-07-30T01:57:03;4.70;;;3.47;;
52590;SDS011;38483;42.620;25.394;2023-07-30T01:59:30;5.33;;;3.43;;
52590;SDS011;38483;42.620;25.394;2023-07-30T02:01:57;5.97;;;3.20;;
52590;SDS011;38483;42.620;25.394;2023-07-30T02:04:25;6.57;;;3.77;;
52590;SDS011;38483;42.620;25.394;2023-07-30T02:06:52;3.80;;;3.10;;
52590;SDS011;38483;42.620;25.394;2023-07-30T02:09:19;4.87;;;3.50;;
52590;SDS011;38483;42.620;25.394;2023-07-30T02:11:47;4.97;;;3.47;;
52590;SDS011;38483;42.620;25.394;2023-07-30T02:14:14;8.23;;;3.90;;
52590;SDS011;38483;42.620;25.394;2023-07-30T02:16:41;4.63;;;3.57;;
52590;SDS011;38483;42.620;25.394;2023-07-30T02:19:08;5.40;;;3.70;;
52590;SDS011;38483;42.620;25.394;2023-07-30T02:21:36;4.37;;;3.40;;
52590;SDS011;38483;42.620;25.394;2023-07-30T02:24:06;4.07;;;3.53;;
52590;SDS011;38483;42.620;25.394;2023-07-30T02:26:37;3.70;;;3.30;;
52590;SDS011;38483;42.620;25.394;2023-07-30T02:29:05;4.30;;;3.20;;
52590;SDS011;38483;42.620;25.394;2023-07-30T02:31:32;4.43;;;3.50;;
52590;SDS011;38483;42.620;25.394;2023-07-30T02:33:59;3.70;;;3.30;;
52590;SDS011;38483;42.620;25.394;2023-07-30T02:36:27;4.33;;;3.57;;
52590;SDS011;38483;42.620;25.394;2023-07-30T02:38:54;3.87;;;3.50;;
52590;SDS011;38483;42.620;25.394;2023-07-30T02:41:21;5.67;;;3.50;;
52590;SDS011;38483;42.620;25.394;2023-07-30T02:43:48;3.83;;;3.50;;
52590;SDS011;38483;42.620;25.394;2023-07-30T02:46:15;4.30;;;3.17;;
52590;SDS011;38483;42.620;25.394;2023-07-30T02:48:42;5.97;;;3.30;;
52590;SDS011;38483;42.620;25.394;2023-07-30T02:51:09;3.40;;;3.10;;
52590;SDS011;38483;42.620;25.394;2023-07-30T02:53:37;3.77;;;3.30;;
52590;SDS011;38483;42.620;25.394;2023-07-30T02:56:04;5.33;;;3.60;;
52590;SDS011;38483;42.620;25.394;2023-07-30T02:58:31;5.47;;;4.10;;
52590;SDS011;38483;42.620;25.394;2023-07-30T03:01:07;5.13;;;3.77;;
52590;SDS011;38483;42.620;25.394;2023-07-30T03:03:36;7.90;;;4.40;;
52590;SDS011;38483;42.620;25.394;2023-07-30T03:06:03;4.23;;;3.57;;
52590;SDS011;38483;42.620;25.394;2023-07-30T03:08:30;4.10;;;3.40;;
52590;SDS011;38483;42.620;25.394;2023-07-30T03:10:58;3.37;;;3.07;;
52590;SDS011;38483;42.620;25.394;2023-07-30T03:13:26;7.43;;;3.70;;
52590;SDS011;38483;42.620;25.394;2023-07-30T03:15:53;7.93;;;4.43;;
52590;SDS011;38483;42.620;25.394;2023-07-30T03:18:20;4.07;;;3.43;;
52590;SDS011;38483;42.620;25.394;2023-07-30T03:20:47;5.17;;;3.73;;
52590;SDS011;38483;42.620;25.394;2023-07-30T03:23:14;5.13;;;3.87;;
52590;SDS011;38483;42.620;25.394;2023-07-30T03:25:41;4.73;;;3.93;;
52590;SDS011;38483;42.620;25.394;2023-07-30T03:28:09;3.57;;;3.27;;
52590;SDS011;38483;42.620;25.394;2023-07-30T03:30:35;4.30;;;3.90;;
52590;SDS011;38483;42.620;25.394;2023-07-30T03:33:05;5.17;;;3.67;;
52590;SDS011;38483;42.620;25.394;2023-07-30T03:35:32;4.57;;;4.10;;
52590;SDS011;38483;42.620;25.394;2023-07-30T03:37:59;4.07;;;3.47;;
52590;SDS011;38483;42.620;25.394;2023-07-30T03:40:27;5.77;;;3.40;;
52590;SDS011;38483;42.620;25.394;2023-07-30T03:42:55;3.10;;;2.80;;
52590;SDS011;38483;42.620;25.394;2023-07-30T03:45:22;5.07;;;3.70;;
52590;SDS011;38483;42.620;25.394;2023-07-30T03:47:49;4.83;;;3.43;;
52590;SDS011;38483;42.620;25.394;2023-07-30T03:50:16;4.37;;;3.53;;
52590;SDS011;38483;42.620;25.394;2023-07-30T03:52:44;3.53;;;3.20;;
52590;SDS011;38483;42.620;25.394;2023-07-30T03:55:11;4.00;;;3.33;;
52590;SDS011;38483;42.620;25.394;2023-07-30T03:57:38;5.07;;;3.57;;
52590;SDS011;38483;42.620;25.394;2023-07-30T04:00:06;4.30;;;3.67;;
52590;SDS011;38483;42.620;25.394;2023-07-30T04:02:40;5.37;;;3.53;;
52590;SDS011;38483;42.620;25.394;2023-07-30T04:05:07;5.60;;;3.67;;
52590;SDS011;38483;42.620;25.394;2023-07-30T04:07:37;4.23;;;3.50;;
52590;SDS011;38483;42.620;25.394;2023-07-30T04:10:08;4.07;;;3.60;;
52590;SDS011;38483;42.620;25.394;2023-07-30T04:12:35;3.80;;;3.40;;
52590;SDS011;38483;42.620;25.394;2023-07-30T04:15:03;3.87;;;3.00;;
52590;SDS011;38483;42.620;25.394;2023-07-30T04:17:32;4.07;;;3.43;;
52590;SDS011;38483;42.620;25.394;2023-07-30T04:19:59;5.90;;;3.47;;
52590;SDS011;38483;42.620;25.394;2023-07-30T04:22:29;3.93;;;3.43;;
52590;SDS011;38483;42.620;25.394;2023-07-30T04:24:57;5.53;;;3.30;;
52590;SDS011;38483;42.620;25.394;2023-07-30T04:27:24;3.30;;;3.00;;
52590;SDS011;38483;42.620;25.394;2023-07-30T04:30:01;3.57;;;3.27;;
52590;SDS011;38483;42.620;25.394;2023-07-30T04:32:32;4.67;;;3.40;;
52590;SDS011;38483;42.620;25.394;2023-07-30T04:35:01;3.70;;;3.03;;
52590;SDS011;38483;42.620;25.394;2023-07-30T04:37:30;3.30;;;3.00;;
52590;SDS011;38483;42.620;25.394;2023-07-30T04:39:57;3.67;;;3.07;;
52590;SDS011;38483;42.620;25.394;2023-07-30T04:42:32;3.83;;;3.50;;
52590;SDS011;38483;42.620;25.394;2023-07-30T04:44:59;3.90;;;3.50;;
52590;SDS011;38483;42.620;25.394;2023-07-30T04:47:26;4.27;;;3.33;;
52590;SDS011;38483;42.620;25.394;2023-07-30T04:49:54;3.63;;;3.10;;
52590;SDS011;38483;42.620;25.394;2023-07-30T04:52:21;3.77;;;3.30;;
52590;SDS011;38483;42.620;25.394;2023-07-30T04:54:48;7.10;;;3.77;;
52590;SDS011;38483;42.620;25.394;2023-07-30T04:57:15;6.00;;;4.43;;
52590;SDS011;38483;42.620;25.394;2023-07-30T04:59:43;4.83;;;3.97;;
52590;SDS011;38483;42.620;25.394;2023-07-30T05:02:10;5.30;;;4.00;;
52590;SDS011;38483;42.620;25.394;2023-07-30T05:04:38;4.27;;;3.60;;
52590;SDS011;38483;42.620;25.394;2023-07-30T05:07:06;4.17;;;3.70;;
52590;SDS011;38483;42.620;25.394;2023-07-30T05:09:33;5.90;;;3.67;;
52590;SDS011;38483;42.620;25.394;2023-07-30T05:12:01;4.83;;;4.33;;
52590;SDS011;38483;42.620;25.394;2023-07-30T05:14:28;5.50;;;4.17;;
52590;SDS011;38483;42.620;25.394;2023-07-30T05:16:55;4.20;;;3.13;;
52590;SDS011;38483;42.620;25.394;2023-07-30T05:19:22;6.23;;;3.73;;
52590;SDS011;38483;42.620;25.394;2023-07-30T05:21:49;4.47;;;3.70;;
52590;SDS011;38483;42.620;25.394;2023-07-30T05:24:17;5.13;;;3.50;;
52590;SDS011;38483;42.620;25.394;2023-07-30T05:26:45;3.53;;;2.90;;
52590;SDS011;38483;42.620;25.394;2023-07-30T05:29:12;3.77;;;3.00;;
52590;SDS011;38483;42.620;25.394;2023-07-30T05:31:39;3.47;;;3.13;;
52590;SDS011;38483;42.620;25.394;2023-07-30T05:34:07;3.33;;;3.00;;
52590;SDS011;38483;42.620;25.394;2023-07-30T05:36:35;4.27;;;2.80;;
52590;SDS011;38483;42.620;25.394;2023-07-30T05:39:02;4.53;;;3.00;;
52590;SDS011;38483;42.620;25.394;2023-07-30T05:41:29;3.60;;;2.90;;
52590;SDS011;38483;42.620;25.394;2023-07-30T05:44:00;3.20;;;2.90;;
52590;SDS011;38483;42.620;25.394;2023-07-30T05:46:28;3.30;;;3.00;;
52590;SDS011;38483;42.620;25.394;2023-07-30T05:48:55;4.23;;;3.27;;
52590;SDS011;38483;42.620;25.394;2023-07-30T05:51:22;3.70;;;3.37;;
52590;SDS011;38483;42.620;25.394;2023-07-30T05:53:51;4.57;;;3.30;;
52590;SDS011;38483;42.620;25.394;2023-07-30T05:56:19;3.70;;;3.20;;
52590;SDS011;38483;42.620;25.394;2023-07-30T05:58:47;7.17;;;3.10;;
52590;SDS011;38483;42.620;25.394;2023-07-30T06:01:14;3.57;;;3.00;;
52590;SDS011;38483;42.620;25.394;2023-07-30T06:03:42;3.20;;;2.90;;
52590;SDS011;38483;42.620;25.394;2023-07-30T06:06:09;3.73;;;3.30;;
52590;SDS011;38483;42.620;25.394;2023-07-30T06:08:36;3.83;;;3.33;;
52590;SDS011;38483;42.620;25.394;2023-07-30T06:11:57;5.43;;;3.50;;
52590;SDS011;38483;42.620;25.394;2023-07-30T06:15:17;4.07;;;3.30;;
52590;SDS011;38483;42.620;25.394;2023-07-30T06:18:38;4.03;;;3.47;;
52590;SDS011;38483;42.620;25.394;2023-07-30T06:21:59;7.67;;;4.00;;
52590;SDS011;38483;42.620;25.394;2023-07-30T06:24:26;6.17;;;3.57;;
52590;SDS011;38483;42.620;25.394;2023-07-30T06:26:53;3.80;;;3.03;;
52590;SDS011;38483;42.620;25.394;2023-07-30T06:29:20;5.32;;;2.90;;
52590;SDS011;38483;42.620;25.394;2023-07-30T06:31:47;3.53;;;3.00;;
52590;SDS011;38483;42.620;25.394;2023-07-30T06:34:15;3.00;;;2.70;;
52590;SDS011;38483;42.620;25.394;2023-07-30T06:36:43;3.50;;;3.20;;
52590;SDS011;38483;42.620;25.394;2023-07-30T06:39:10;4.23;;;3.83;;
52590;SDS011;38483;42.620;25.394;2023-07-30T06:41:38;4.87;;;2.97;;
52590;SDS011;38483;42.620;25.394;2023-07-30T06:44:07;4.60;;;2.73;;
52590;SDS011;38483;42.620;25.394;2023-07-30T06:46:35;5.27;;;3.13;;
52590;SDS011;38483;42.620;25.394;2023-07-30T06:49:03;4.77;;;3.40;;
52590;SDS011;38483;42.620;25.394;2023-07-30T06:51:30;4.70;;;2.80;;
52590;SDS011;38483;42.620;25.394;2023-07-30T06:53:59;3.07;;;2.53;;
52590;SDS011;38483;42.620;25.394;2023-07-30T06:56:27;3.40;;;2.90;;
52590;SDS011;38483;42.620;25.394;2023-07-30T06:58:56;3.23;;;2.93;;
52590;SDS011;38483;42.620;25.394;2023-07-30T07:01:23;3.10;;;2.80;;
52590;SDS011;38483;42.620;25.394;2023-07-30T07:03:50;3.40;;;3.10;;
52590;SDS011;38483;42.620;25.394;2023-07-30T07:06:19;3.50;;;2.53;;
52590;SDS011;38483;42.620;25.394;2023-07-30T07:08:46;4.70;;;3.47;;
52590;SDS011;38483;42.620;25.394;2023-07-30T07:11:13;5.47;;;3.20;;
52590;SDS011;38483;42.620;25.394;2023-07-30T07:13:43;4.60;;;3.43;;
52590;SDS011;38483;42.620;25.394;2023-07-30T07:16:10;4.27;;;3.40;;
52590;SDS011;38483;42.620;25.394;2023-07-30T07:18:37;5.47;;;3.20;;
52590;SDS011;38483;42.620;25.394;2023-07-30T07:21:05;4.53;;;3.77;;
52590;SDS011;38483;42.620;25.394;2023-07-30T07:23:32;9.17;;;3.23;;
52590;SDS011;38483;42.620;25.394;2023-07-30T07:25:59;3.90;;;3.17;;
52590;SDS011;38483;42.620;25.394;2023-07-30T07:28:26;4.33;;;3.00;;
52590;SDS011;38483;42.620;25.394;2023-07-30T07:30:54;4.83;;;3.10;;
52590;SDS011;38483;42.620;25.394;2023-07-30T07:33:22;5.20;;;3.40;;
52590;SDS011;38483;42.620;25.394;2023-07-30T07:35:50;6.00;;;3.83;;
52590;SDS011;38483;42.620;25.394;2023-07-30T07:38:20;3.97;;;3.17;;
52590;SDS011;38483;42.620;25.394;2023-07-30T07:40:47;3.20;;;2.90;;
52590;SDS011;38483;42.620;25.394;2023-07-30T07:43:18;4.50;;;3.50;;
52590;SDS011;38483;42.620;25.394;2023-07-30T07:45:45;3.77;;;2.40;;
52590;SDS011;38483;42.620;25.394;2023-07-30T07:48:15;3.13;;;2.83;;
52590;SDS011;38483;42.620;25.394;2023-07-30T07:50:44;3.50;;;3.17;;
52590;SDS011;38483;42.620;25.394;2023-07-30T07:53:14;27.57;;;4.40;;
52590;SDS011;38483;42.620;25.394;2023-07-30T07:55:41;7.00;;;4.37;;
52590;SDS011;38483;42.620;25.394;2023-07-30T07:58:17;3.87;;;3.23;;
52590;SDS011;38483;42.620;25.394;2023-07-30T08:00:47;6.23;;;3.73;;
52590;SDS011;38483;42.620;25.394;2023-07-30T08:03:21;4.10;;;3.13;;
52590;SDS011;38483;42.620;25.394;2023-07-30T08:05:50;4.57;;;2.70;;
52590;SDS011;38483;42.620;25.394;2023-07-30T08:08:18;6.50;;;2.73;;
52590;SDS011;38483;42.620;25.394;2023-07-30T08:10:45;4.50;;;2.90;;
52590;SDS011;38483;42.620;25.394;2023-07-30T08:13:15;3.50;;;2.80;;
52590;SDS011;38483;42.620;25.394;2023-07-30T08:15:42;3.10;;;2.60;;
52590;SDS011;38483;42.620;25.394;2023-07-30T08:18:09;3.20;;;2.87;;
52590;SDS011;38483;42.620;25.394;2023-07-30T08:20:39;3.30;;;3.00;;
52590;SDS011;38483;42.620;25.394;2023-07-30T08:23:06;4.23;;;2.60;;
52590;SDS011;38483;42.620;25.394;2023-07-30T08:25:33;2.73;;;1.93;;
52590;SDS011;38483;42.620;25.394;2023-07-30T08:28:00;3.07;;;2.50;;
52590;SDS011;38483;42.620;25.394;2023-07-30T08:30:28;3.87;;;2.90;;
52590;SDS011;38483;42.620;25.394;2023-07-30T08:32:55;2.73;;;2.03;;
52590;SDS011;38483;42.620;25.394;2023-07-30T08:35:22;2.77;;;2.30;;
52590;SDS011;38483;42.620;25.394;2023-07-30T08:37:49;5.00;;;2.50;;
52590;SDS011;38483;42.620;25.394;2023-07-30T08:40:17;3.00;;;2.70;;
52590;SDS011;38483;42.620;25.394;2023-07-30T08:42:45;3.17;;;2.40;;
52590;SDS011;38483;42.620;25.394;2023-07-30T08:45:12;3.43;;;2.43;;
52590;SDS011;38483;42.620;25.394;2023-07-30T08:47:39;2.58;;;2.13;;
52590;SDS011;38483;42.620;25.394;2023-07-30T08:50:08;5.38;;;2.38;;
52590;SDS011;38483;42.620;25.394;2023-07-30T08:52:35;2.20;;;2.00;;
52590;SDS011;38483;42.620;25.394;2023-07-30T08:55:04;2.97;;;2.23;;
52590;SDS011;38483;42.620;25.394;2023-07-30T08:57:33;2.92;;;2.58;;
52590;SDS011;38483;42.620;25.394;2023-07-30T09:00:01;4.78;;;2.50;;
52590;SDS011;38483;42.620;25.394;2023-07-30T09:02:46;5.30;;;2.38;;
52590;SDS011;38483;42.620;25.394;2023-07-30T09:05:15;2.38;;;2.17;;
52590;SDS011;38483;42.620;25.394;2023-07-30T09:07:42;2.70;;;2.20;;
52590;SDS011;38483;42.620;25.394;2023-07-30T09:10:10;2.80;;;2.22;;
52590;SDS011;38483;42.620;25.394;2023-07-30T09:12:37;4.00;;;2.22;;
52590;SDS011;38483;42.620;25.394;2023-07-30T09:15:05;4.30;;;2.88;;
52590;SDS011;38483;42.620;25.394;2023-07-30T09:17:33;4.78;;;2.28;;
52590;SDS011;38483;42.620;25.394;2023-07-30T09:20:04;3.75;;;2.22;;
52590;SDS011;38483;42.620;25.394;2023-07-30T09:22:33;2.97;;;2.67;;
52590;SDS011;38483;42.620;25.394;2023-07-30T09:25:06;2.45;;;2.15;;
52590;SDS011;38483;42.620;25.394;2023-07-30T09:27:34;4.05;;;2.35;;
52590;SDS011;38483;42.620;25.394;2023-07-30T09:30:02;2.55;;;2.28;;
52590;SDS011;38483;42.620;25.394;2023-07-30T09:32:35;3.80;;;2.67;;
52590;SDS011;38483;42.620;25.394;2023-07-30T09:35:06;6.65;;;2.78;;
52590;SDS011;38483;42.620;25.394;2023-07-30T09:37:40;4.03;;;3.10;;
52590;SDS011;38483;42.620;25.394;2023-07-30T09:40:12;3.15;;;2.85;;
52590;SDS011;38483;42.620;25.394;2023-07-30T09:42:45;3.00;;;2.30;;
52590;SDS011;38483;42.620;25.394;2023-07-30T09:45:22;2.72;;;2.33;;
52590;SDS011;38483;42.620;25.394;2023-07-30T09:47:53;3.70;;;2.60;;
52590;SDS011;38483;42.620;25.394;2023-07-30T09:50:23;4.28;;;2.65;;
52590;SDS011;38483;42.620;25.394;2023-07-30T09:52:50;3.30;;;3.00;;
52590;SDS011;38483;42.620;25.394;2023-07-30T09:55:17;4.60;;;3.28;;
52590;SDS011;38483;42.620;25.394;2023-07-30T09:57:46;5.32;;;2.83;;
52590;SDS011;38483;42.620;25.394;2023-07-30T10:00:13;6.25;;;3.80;;
52590;SDS011;38483;42.620;25.394;2023-07-30T10:02:44;5.32;;;3.00;;
52590;SDS011;38483;42.620;25.394;2023-07-30T10:05:23;3.58;;;3.28;;
52590;SDS011;38483;42.620;25.394;2023-07-30T10:07:57;4.18;;;2.72;;
52590;SDS011;38483;42.620;25.394;2023-07-30T10:10:27;3.60;;;2.92;;
52590;SDS011;38483;42.620;25.394;2023-07-30T10:12:57;5.70;;;3.13;;
52590;SDS011;38483;42.620;25.394;2023-07-30T10:15:27;3.83;;;2.90;;
52590;SDS011;38483;42.620;25.394;2023-07-30T10:17:55;4.72;;;2.90;;
52590;SDS011;38483;42.620;25.394;2023-07-30T10:20:28;4.25;;;2.58;;
52590;SDS011;38483;42.620;25.394;2023-07-30T10:22:58;5.68;;;3.00;;
52590;SDS011;38483;42.620;25.394;2023-07-30T10:25:43;3.40;;;3.05;;
52590;SDS011;38483;42.620;25.394;2023-07-30T10:36:12;3.80;;;2.90;;
52590;SDS011;38483;42.620;25.394;2023-07-30T10:38:39;4.28;;;3.40;;
52590;SDS011;38483;42.620;25.394;2023-07-30T10:41:10;3.70;;;2.90;;
52590;SDS011;38483;42.620;25.394;2023-07-30T10:43:45;3.58;;;3.13;;
52590;SDS011;38483;42.620;25.394;2023-07-30T10:46:15;3.38;;;2.80;;
52590;SDS011;38483;42.620;25.394;2023-07-30T10:48:45;4.43;;;2.95;;
52590;SDS011;38483;42.620;25.394;2023-07-30T10:51:14;3.38;;;2.80;;
52590;SDS011;38483;42.620;25.394;2023-07-30T10:53:46;3.17;;;2.88;;
52590;SDS011;38483;42.620;25.394;2023-07-30T10:56:20;3.90;;;3.40;;
52590;SDS011;38483;42.620;25.394;2023-07-30T10:58:53;3.88;;;3.13;;
52590;SDS011;38483;42.620;25.394;2023-07-30T11:01:24;4.53;;;3.42;;
52590;SDS011;38483;42.620;25.394;2023-07-30T11:03:53;4.13;;;2.97;;
52590;SDS011;38483;42.620;25.394;2023-07-30T11:06:23;3.83;;;3.42;;
52590;SDS011;38483;42.620;25.394;2023-07-30T11:08:51;5.03;;;3.40;;
52590;SDS011;38483;42.620;25.394;2023-07-30T11:11:18;3.67;;;3.00;;
52590;SDS011;38483;42.620;25.394;2023-07-30T11:14:39;4.88;;;3.13;;
52590;SDS011;38483;42.620;25.394;2023-07-30T11:18:00;3.13;;;2.83;;
52590;SDS011;38483;42.620;25.394;2023-07-30T11:21:23;3.78;;;3.10;;
52590;SDS011;38483;42.620;25.394;2023-07-30T11:24:49;2.50;;;2.30;;
52590;SDS011;38483;42.620;25.394;2023-07-30T11:31:29;3.42;;;3.00;;
52590;SDS011;38483;42.620;25.394;2023-07-30T11:34:52;3.05;;;2.75;;
52590;SDS011;38483;42.620;25.394;2023-07-30T11:37:20;3.80;;;2.92;;
52590;SDS011;38483;42.620;25.394;2023-07-30T11:39:48;6.70;;;3.85;;
52590;SDS011;38483;42.620;25.394;2023-07-30T11:42:16;3.65;;;3.28;;
52590;SDS011;38483;42.620;25.394;2023-07-30T11:44:43;4.07;;;3.67;;
52590;SDS011;38483;42.620;25.394;2023-07-30T11:47:10;4.05;;;3.33;;
52590;SDS011;38483;42.620;25.394;2023-07-30T11:49:37;3.80;;;3.08;;
52590;SDS011;38483;42.620;25.394;2023-07-30T11:52:08;3.17;;;2.88;;
52590;SDS011;38483;42.620;25.394;2023-07-30T11:54:36;3.40;;;3.10;;
52590;SDS011;38483;42.620;25.394;2023-07-30T11:57:04;3.00;;;2.60;;
52590;SDS011;38483;42.620;25.394;2023-07-30T11:59:31;4.97;;;3.50;;
52590;SDS011;38483;42.620;25.394;2023-07-30T12:01:59;5.10;;;3.25;;
52590;SDS011;38483;42.620;25.394;2023-07-30T12:04:45;8.50;;;3.72;;
52590;SDS011;38483;42.620;25.394;2023-07-30T12:07:29;3.40;;;3.10;;
52590;SDS011;38483;42.620;25.394;2023-07-30T12:10:17;3.78;;;3.08;;
52590;SDS011;38483;42.620;25.394;2023-07-30T12:12:47;3.95;;;2.70;;
52590;SDS011;38483;42.620;25.394;2023-07-30T12:15:18;5.13;;;3.17;;
52590;SDS011;38483;42.620;25.394;2023-07-30T12:17:46;3.17;;;2.88;;
52590;SDS011;38483;42.620;25.394;2023-07-30T12:20:13;4.55;;;2.90;;
52590;SDS011;38483;42.620;25.394;2023-07-30T12:22:40;3.40;;;3.10;;
52590;SDS011;38483;42.620;25.394;2023-07-30T12:25:09;3.83;;;3.00;;
52590;SDS011;38483;42.620;25.394;2023-07-30T12:27:37;3.33;;;2.50;;
52590;SDS011;38483;42.620;25.394;2023-07-30T12:30:04;4.07;;;3.10;;
52590;SDS011;38483;42.620;25.394;2023-07-30T12:32:32;3.35;;;2.70;;
52590;SDS011;38483;42.620;25.394;2023-07-30T12:34:59;4.13;;;3.05;;
52590;SDS011;38483;42.620;25.394;2023-07-30T12:37:28;3.83;;;2.53;;
52590;SDS011;38483;42.620;25.394;2023-07-30T12:39:56;3.30;;;3.00;;
52590;SDS011;38483;42.620;25.394;2023-07-30T12:42:23;3.42;;;2.80;;
52590;SDS011;38483;42.620;25.394;2023-07-30T12:44:50;3.35;;;3.00;;
52590;SDS011;38483;42.620;25.394;2023-07-30T12:47:17;6.20;;;2.67;;
52590;SDS011;38483;42.620;25.394;2023-07-30T12:49:45;3.75;;;2.72;;
52590;SDS011;38483;42.620;25.394;2023-07-30T12:52:12;4.05;;;2.40;;
52590;SDS011;38483;42.620;25.394;2023-07-30T12:54:39;2.42;;;2.22;;
52590;SDS011;38483;42.620;25.394;2023-07-30T12:57:07;4.03;;;2.50;;
52590;SDS011;38483;42.620;25.394;2023-07-30T12:59:34;3.45;;;2.50;;
52590;SDS011;38483;42.620;25.394;2023-07-30T13:02:02;2.42;;;2.22;;
52590;SDS011;38483;42.620;25.394;2023-07-30T13:04:30;5.25;;;3.25;;
52590;SDS011;38483;42.620;25.394;2023-07-30T13:06:57;6.25;;;2.75;;
52590;SDS011;38483;42.620;25.394;2023-07-30T13:09:25;3.75;;;3.03;;
52590;SDS011;38483;42.620;25.394;2023-07-30T13:11:52;5.88;;;3.15;;
52590;SDS011;38483;42.620;25.394;2023-07-30T13:14:19;4.95;;;4.45;;
52590;SDS011;38483;42.620;25.394;2023-07-30T13:16:47;3.20;;;2.90;;
52590;SDS011;38483;42.620;25.394;2023-07-30T13:19:16;3.67;;;2.63;;
52590;SDS011;38483;42.620;25.394;2023-07-30T13:21:43;4.47;;;3.33;;
52590;SDS011;38483;42.620;25.394;2023-07-30T13:24:10;3.35;;;2.50;;
52590;SDS011;38483;42.620;25.394;2023-07-30T13:26:38;3.00;;;2.70;;
52590;SDS011;38483;42.620;25.394;2023-07-30T13:29:05;4.05;;;2.70;;
52590;SDS011;38483;42.620;25.394;2023-07-30T13:31:32;5.20;;;2.83;;
52590;SDS011;38483;42.620;25.394;2023-07-30T13:34:00;3.72;;;3.10;;
52590;SDS011;38483;42.620;25.394;2023-07-30T13:36:27;3.15;;;2.83;;
52590;SDS011;38483;42.620;25.394;2023-07-30T13:38:54;3.17;;;2.80;;
52590;SDS011;38483;42.620;25.394;2023-07-30T13:41:21;3.33;;;2.97;;
52590;SDS011;38483;42.620;25.394;2023-07-30T13:43:48;2.70;;;2.50;;
52590;SDS011;38483;42.620;25.394;2023-07-30T13:46:15;7.93;;;2.97;;
52590;SDS011;38483;42.620;25.394;2023-07-30T13:48:43;4.10;;;2.80;;
52590;SDS011;38483;42.620;25.394;2023-07-30T13:51:10;2.67;;;2.47;;
52590;SDS011;38483;42.620;25.394;2023-07-30T13:53:37;4.03;;;2.72;;
52590;SDS011;38483;42.620;25.394;2023-07-30T13:56:07;2.92;;;2.72;;
52590;SDS011;38483;42.620;25.394;2023-07-30T13:58:35;4.40;;;2.97;;
52590;SDS011;38483;42.620;25.394;2023-07-30T14:01:02;4.05;;;2.65;;
52590;SDS011;38483;42.620;25.394;2023-07-30T14:03:29;3.30;;;3.00;;
52590;SDS011;38483;42.620;25.394;2023-07-30T14:05:57;4.38;;;3.30;;
52590;SDS011;38483;42.620;25.394;2023-07-30T14:08:24;3.67;;;3.15;;
52590;SDS011;38483;42.620;25.394;2023-07-30T14:10:51;4.95;;;2.97;;
52590;SDS011;38483;42.620;25.394;2023-07-30T14:14:12;3.90;;;3.35;;
52590;SDS011;38483;42.620;25.394;2023-07-30T14:17:33;3.20;;;2.90;;
52590;SDS011;38483;42.620;25.394;2023-07-30T14:20:53;3.30;;;3.00;;
52590;SDS011;38483;42.620;25.394;2023-07-30T14:24:05;3.60;;;2.70;;
52590;SDS011;38483;42.620;25.394;2023-07-30T14:26:32;3.13;;;2.63;;
52590;SDS011;38483;42.620;25.394;2023-07-30T14:28:59;3.22;;;2.92;;
52590;SDS011;38483;42.620;25.394;2023-07-30T14:31:26;5.05;;;3.25;;
52590;SDS011;38483;42.620;25.394;2023-07-30T14:33:54;4.47;;;3.63;;
52590;SDS011;38483;42.620;25.394;2023-07-30T14:36:21;3.53;;;2.97;;
52590;SDS011;38483;42.620;25.394;2023-07-30T14:38:48;4.60;;;3.33;;
52590;SDS011;38483;42.620;25.394;2023-07-30T14:41:15;2.72;;;2.53;;
52590;SDS011;38483;42.620;25.394;2023-07-30T14:43:42;3.25;;;2.78;;
52590;SDS011;38483;42.620;25.394;2023-07-30T14:46:09;4.00;;;3.60;;
52590;SDS011;38483;42.620;25.394;2023-07-30T14:48:41;3.42;;;2.97;;
52590;SDS011;38483;42.620;25.394;2023-07-30T14:51:10;3.63;;;3.20;;
52590;SDS011;38483;42.620;25.394;2023-07-30T14:53:37;4.03;;;3.35;;
52590;SDS011;38483;42.620;25.394;2023-07-30T14:56:05;4.97;;;3.10;;
52590;SDS011;38483;42.620;25.394;2023-07-30T14:58:32;3.67;;;3.10;;
52590;SDS011;38483;42.620;25.394;2023-07-30T15:00:59;3.30;;;3.00;;
52590;SDS011;38483;42.620;25.394;2023-07-30T15:03:26;4.03;;;2.72;;